sensor_id;sensor_type;location;lat;lon;timestamp;pressure;altitude;pressure_sealevel;temperature;humidity
13241;BME280;6687;47.790;7.322;2023-05-23T04:58:34;98952.16;;;16.87;100.00
13241;BME280;6687;47.790;7.322;2023-05-23T05:01:01;98953.63;;;16.99;100.00
13241;BME280;6687;47.790;7.322;2023-05-23T05:03:28;98954.59;;;17.30;100.00
13241;BME280;6687;47.790;7.322;2023-05-23T05:05:55;98961.47;;;17.35;100.00
13241;BME280;6687;47.790;7.322;2023-05-23T05:08:22;98958.31;;;17.55;100.00
13241;BME280;6687;47.790;7.322;2023-05-23T05:10:49;98959.25;;;17.52;100.00
13241;BME280;6687;47.790;7.322;2023-05-23T05:13:16;98966.75;;;17.66;100.00
13241;BME280;6687;47.790;7.322;2023-05-23T05:15:44;98966.41;;;17.78;100.00
13241;BME280;6687;47.790;7.322;2023-05-23T05:18:10;98968.06;;;17.84;97.66
13241;BME280;6687;47.790;7.322;2023-05-23T05:20:37;98973.81;;;17.64;100.00
13241;BME280;6687;47.790;7.322;2023-05-23T05:23:04;98961.91;;;17.85;100.00
13241;BME280;6687;47.790;7.322;2023-05-23T05:25:32;98962.66;;;17.88;100.00
13241;BME280;6687;47.790;7.322;2023-05-23T05:28:01;98962.00;;;18.13;97.01
13241;BME280;6687;47.790;7.322;2023-05-23T05:30:30;98959.16;;;18.21;92.00
13241;BME280;6687;47.790;7.322;2023-05-23T05:32:59;98966.66;;;18.33;92.94
13241;BME280;6687;47.790;7.322;2023-05-23T05:35:26;98962.78;;;18.46;92.79
13241;BME280;6687;47.790;7.322;2023-05-23T05:37:53;98960.75;;;18.55;94.67
13241;BME280;6687;47.790;7.322;2023-05-23T05:40:20;98962.50;;;18.54;94.93
13241;BME280;6687;47.790;7.322;2023-05-23T05:42:47;98973.34;;;18.43;98.13
13241;BME280;6687;47.790;7.322;2023-05-23T05:45:14;98970.09;;;18.63;98.22
13241;BME280;6687;47.790;7.322;2023-05-23T05:47:40;98974.47;;;18.93;97.01
13241;BME280;6687;47.790;7.322;2023-05-23T05:50:09;98972.66;;;18.95;96.87
13241;BME280;6687;47.790;7.322;2023-05-23T05:52:36;98977.78;;;18.69;95.33
13241;BME280;6687;47.790;7.322;2023-05-23T05:55:05;98981.38;;;18.67;93.94
13241;BME280;6687;47.790;7.322;2023-05-23T05:57:32;98978.00;;;18.92;92.51
13241;BME280;6687;47.790;7.322;2023-05-23T05:59:58;98981.06;;;19.06;91.35
13241;BME280;6687;47.790;7.322;2023-05-23T06:02:25;98980.34;;;19.27;90.63
13241;BME280;6687;47.790;7.322;2023-05-23T06:04:52;98988.78;;;19.11;90.86
13241;BME280;6687;47.790;7.322;2023-05-23T06:07:20;98981.44;;;19.22;89.25
13241;BME280;6687;47.790;7.322;2023-05-23T06:09:47;98987.69;;;19.70;88.75
13241;BME280;6687;47.790;7.322;2023-05-23T06:12:13;98991.19;;;19.95;87.60
13241;BME280;6687;47.790;7.322;2023-05-23T06:14:40;98993.72;;;20.22;86.42
13241;BME280;6687;47.790;7.322;2023-05-23T06:17:07;98986.56;;;20.49;86.39
13241;BME280;6687;47.790;7.322;2023-05-23T06:19:33;98989.41;;;20.43;85.53
13241;BME280;6687;47.790;7.322;2023-05-23T06:22:01;98982.59;;;20.84;84.85
13241;BME280;6687;47.790;7.322;2023-05-23T06:24:29;98986.25;;;21.02;84.26
13241;BME280;6687;47.790;7.322;2023-05-23T06:26:56;98981.69;;;20.85;81.46
13241;BME280;6687;47.790;7.322;2023-05-23T06:29:23;98994.03;;;21.05;80.38
13241;BME280;6687;47.790;7.322;2023-05-23T06:31:50;98988.22;;;21.19;79.23
13241;BME280;6687;47.790;7.322;2023-05-23T06:34:17;98985.59;;;21.19;78.92
13241;BME280;6687;47.790;7.322;2023-05-23T06:36:43;98992.94;;;21.11;77.94
13241;BME280;6687;47.790;7.322;2023-05-23T06:39:11;98993.19;;;21.05;77.40
13241;BME280;6687;47.790;7.322;2023-05-23T06:41:39;98994.78;;;21.09;76.96
13241;BME280;6687;47.790;7.322;2023-05-23T06:44:06;98992.19;;;21.30;77.76
13241;BME280;6687;47.790;7.322;2023-05-23T06:46:33;98991.72;;;21.83;77.28
13241;BME280;6687;47.790;7.322;2023-05-23T06:48:59;98994.47;;;22.00;76.93
13241;BME280;6687;47.790;7.322;2023-05-23T06:51:26;98996.31;;;21.78;75.24
13241;BME280;6687;47.790;7.322;2023-05-23T06:53:53;98996.25;;;22.39;75.49
13241;BME280;6687;47.790;7.322;2023-05-23T06:56:20;99000.06;;;21.72;72.17
13241;BME280;6687;47.790;7.322;2023-05-23T06:58:49;99003.25;;;22.40;74.90
13241;BME280;6687;47.790;7.322;2023-05-23T07:01:15;99003.94;;;22.25;74.58
13241;BME280;6687;47.790;7.322;2023-05-23T07:03:42;99007.63;;;21.39;72.30
13241;BME280;6687;47.790;7.322;2023-05-23T07:06:10;99004.91;;;22.22;70.99
13241;BME280;6687;47.790;7.322;2023-05-23T07:08:37;99006.97;;;22.55;70.99
13241;BME280;6687;47.790;7.322;2023-05-23T07:11:04;99002.22;;;22.62;70.59
13241;BME280;6687;47.790;7.322;2023-05-23T07:13:31;99009.81;;;22.11;68.39
13241;BME280;6687;47.790;7.322;2023-05-23T07:15:59;99009.50;;;22.38;68.34
13241;BME280;6687;47.790;7.322;2023-05-23T07:18:26;99008.66;;;22.37;69.23
13241;BME280;6687;47.790;7.322;2023-05-23T07:20:53;99003.66;;;22.31;68.12
13241;BME280;6687;47.790;7.322;2023-05-23T07:23:21;98994.78;;;22.89;68.45
13241;BME280;6687;47.790;7.322;2023-05-23T07:25:49;98996.72;;;22.86;65.73
13241;BME280;6687;47.790;7.322;2023-05-23T07:28:15;98998.22;;;23.28;68.36
13241;BME280;6687;47.790;7.322;2023-05-23T07:30:42;99003.00;;;23.38;68.81
13241;BME280;6687;47.790;7.322;2023-05-23T07:33:10;99005.22;;;23.11;64.63
13241;BME280;6687;47.790;7.322;2023-05-23T07:35:37;99000.13;;;23.60;68.95
13241;BME280;6687;47.790;7.322;2023-05-23T07:38:03;99007.06;;;23.09;66.18
13241;BME280;6687;47.790;7.322;2023-05-23T07:40:30;99012.53;;;23.23;63.85
13241;BME280;6687;47.790;7.322;2023-05-23T07:42:57;99015.53;;;23.52;64.44
13241;BME280;6687;47.790;7.322;2023-05-23T07:45:24;99013.81;;;23.51;63.89
13241;BME280;6687;47.790;7.322;2023-05-23T07:47:51;99004.88;;;23.54;66.49
13241;BME280;6687;47.790;7.322;2023-05-23T07:50:19;98999.03;;;23.65;61.55
13241;BME280;6687;47.790;7.322;2023-05-23T07:52:46;99002.63;;;23.46;62.13
13241;BME280;6687;47.790;7.322;2023-05-23T07:55:12;99001.97;;;23.41;64.28
13241;BME280;6687;47.790;7.322;2023-05-23T07:57:39;98993.75;;;23.99;63.50
13241;BME280;6687;47.790;7.322;2023-05-23T08:00:07;98999.50;;;23.73;60.83
13241;BME280;6687;47.790;7.322;2023-05-23T08:02:34;99002.06;;;24.25;59.13
13241;BME280;6687;47.790;7.322;2023-05-23T08:05:01;98999.09;;;24.15;63.07
13241;BME280;6687;47.790;7.322;2023-05-23T08:07:29;99004.28;;;24.82;62.76
13241;BME280;6687;47.790;7.322;2023-05-23T08:09:56;99001.47;;;24.20;56.54
13241;BME280;6687;47.790;7.322;2023-05-23T08:12:23;99007.50;;;24.39;55.47
13241;BME280;6687;47.790;7.322;2023-05-23T08:14:49;99001.59;;;24.01;56.56
13241;BME280;6687;47.790;7.322;2023-05-23T08:17:16;98997.94;;;24.04;56.54
13241;BME280;6687;47.790;7.322;2023-05-23T08:19:43;99013.00;;;25.32;57.22
13241;BME280;6687;47.790;7.322;2023-05-23T08:22:10;99013.47;;;24.43;55.63
13241;BME280;6687;47.790;7.322;2023-05-23T08:24:38;99011.97;;;25.02;55.59
13241;BME280;6687;47.790;7.322;2023-05-23T08:27:05;99007.19;;;25.09;58.24
13241;BME280;6687;47.790;7.322;2023-05-23T08:29:32;99014.88;;;25.30;60.14
13241;BME280;6687;47.790;7.322;2023-05-23T08:31:59;99013.38;;;25.70;60.20
13241;BME280;6687;47.790;7.322;2023-05-23T08:34:26;99007.38;;;25.83;53.96
13241;BME280;6687;47.790;7.322;2023-05-23T08:36:53;99014.75;;;25.47;53.71
13241;BME280;6687;47.790;7.322;2023-05-23T08:39:19;99016.22;;;25.97;52.58
13241;BME280;6687;47.790;7.322;2023-05-23T08:41:48;99026.03;;;25.81;54.70
13241;BME280;6687;47.790;7.322;2023-05-23T08:44:14;99024.00;;;26.15;58.39
13241;BME280;6687;47.790;7.322;2023-05-23T08:46:44;99027.50;;;26.30;52.58
13241;BME280;6687;47.790;7.322;2023-05-23T08:49:15;99023.41;;;26.82;55.13
13241;BME280;6687;47.790;7.322;2023-05-23T08:51:43;99021.09;;;26.90;55.70
13241;BME280;6687;47.790;7.322;2023-05-23T08:54:10;99025.31;;;26.94;49.82
13241;BME280;6687;47.790;7.322;2023-05-23T08:56:38;99024.44;;;27.21;54.66
13241;BME280;6687;47.790;7.322;2023-05-23T08:59:08;99018.28;;;27.20;52.76
13241;BME280;6687;47.790;7.322;2023-05-23T09:01:36;99020.41;;;27.42;52.66
13241;BME280;6687;47.790;7.322;2023-05-23T09:04:04;99017.22;;;27.23;52.66
13241;BME280;6687;47.790;7.322;2023-05-23T09:06:31;99019.41;;;27.30;51.40
13241;BME280;6687;47.790;7.322;2023-05-23T09:08:58;99028.16;;;26.48;50.07
13241;BME280;6687;47.790;7.322;2023-05-23T09:11:25;99024.41;;;27.35;53.44
13241;BME280;6687;47.790;7.322;2023-05-23T09:13:52;99024.34;;;27.49;50.17
13241;BME280;6687;47.790;7.322;2023-05-23T09:16:20;99019.84;;;26.39;50.24
13241;BME280;6687;47.790;7.322;2023-05-23T09:18:46;99025.22;;;27.63;47.24
13241;BME280;6687;47.790;7.322;2023-05-23T09:21:13;99017.16;;;27.77;49.58
13241;BME280;6687;47.790;7.322;2023-05-23T09:23:40;99014.97;;;27.44;47.60
13241;BME280;6687;47.790;7.322;2023-05-23T09:26:08;99017.00;;;28.31;49.10
13241;BME280;6687;47.790;7.322;2023-05-23T09:28:36;99016.22;;;27.78;46.45
13241;BME280;6687;47.790;7.322;2023-05-23T09:31:05;99013.59;;;28.29;50.00
13241;BME280;6687;47.790;7.322;2023-05-23T09:33:38;99005.06;;;27.99;45.31
13241;BME280;6687;47.790;7.322;2023-05-23T09:36:05;99019.56;;;28.07;47.73
13241;BME280;6687;47.790;7.322;2023-05-23T09:38:36;99023.56;;;28.39;45.52
13241;BME280;6687;47.790;7.322;2023-05-23T09:41:03;99023.97;;;27.28;47.13
13241;BME280;6687;47.790;7.322;2023-05-23T09:43:30;99025.94;;;27.92;44.72
13241;BME280;6687;47.790;7.322;2023-05-23T09:46:00;99021.34;;;26.44;46.74
13241;BME280;6687;47.790;7.322;2023-05-23T09:48:27;99014.50;;;26.83;46.45
13241;BME280;6687;47.790;7.322;2023-05-23T09:50:56;99013.69;;;27.49;45.65
13241;BME280;6687;47.790;7.322;2023-05-23T09:53:23;99017.84;;;27.93;44.29
13241;BME280;6687;47.790;7.322;2023-05-23T09:55:50;99017.94;;;28.30;46.38
13241;BME280;6687;47.790;7.322;2023-05-23T09:58:19;99019.13;;;28.52;45.67
13241;BME280;6687;47.790;7.322;2023-05-23T10:00:49;99013.44;;;28.69;44.33
13241;BME280;6687;47.790;7.322;2023-05-23T10:03:22;99016.31;;;28.41;45.69
13241;BME280;6687;47.790;7.322;2023-05-23T10:05:54;99011.22;;;28.25;45.14
13241;BME280;6687;47.790;7.322;2023-05-23T10:08:35;99013.31;;;27.81;44.71
13241;BME280;6687;47.790;7.322;2023-05-23T10:14:16;99013.19;;;27.57;44.15
13241;BME280;6687;47.790;7.322;2023-05-23T10:16:52;99013.44;;;27.27;45.59
13241;BME280;6687;47.790;7.322;2023-05-23T10:19:23;99018.78;;;27.12;46.85
13241;BME280;6687;47.790;7.322;2023-05-23T10:21:56;99020.69;;;27.77;45.02
13241;BME280;6687;47.790;7.322;2023-05-23T10:24:26;99010.25;;;28.39;45.74
13241;BME280;6687;47.790;7.322;2023-05-23T10:26:54;99017.81;;;28.19;42.94
13241;BME280;6687;47.790;7.322;2023-05-23T10:29:21;99015.72;;;27.99;46.09
13241;BME280;6687;47.790;7.322;2023-05-23T10:31:49;99008.88;;;28.20;43.50
13241;BME280;6687;47.790;7.322;2023-05-23T10:34:22;99017.94;;;27.39;43.14
13241;BME280;6687;47.790;7.322;2023-05-23T10:36:58;99017.63;;;28.22;42.64
13241;BME280;6687;47.790;7.322;2023-05-23T10:39:51;99024.88;;;28.83;42.40
13241;BME280;6687;47.790;7.322;2023-05-23T10:42:33;99022.63;;;28.40;41.01
13241;BME280;6687;47.790;7.322;2023-05-23T10:45:17;99007.38;;;27.10;43.07
13241;BME280;6687;47.790;7.322;2023-05-23T10:47:45;99006.00;;;28.86;41.76
13241;BME280;6687;47.790;7.322;2023-05-23T10:50:12;99016.09;;;28.69;42.09
13241;BME280;6687;47.790;7.322;2023-05-23T10:52:40;99012.59;;;27.26;42.75
13241;BME280;6687;47.790;7.322;2023-05-23T10:55:13;99009.31;;;28.40;42.21
13241;BME280;6687;47.790;7.322;2023-05-23T10:57:42;99011.91;;;29.02;42.03
13241;BME280;6687;47.790;7.322;2023-05-23T11:00:14;99011.41;;;28.60;42.50
13241;BME280;6687;47.790;7.322;2023-05-23T11:02:46;99003.72;;;29.65;44.19
13241;BME280;6687;47.790;7.322;2023-05-23T11:05:19;99011.56;;;28.83;40.36
13241;BME280;6687;47.790;7.322;2023-05-23T11:08:05;99002.38;;;28.87;39.54
13241;BME280;6687;47.790;7.322;2023-05-23T11:10:50;99004.28;;;28.85;40.98
13241;BME280;6687;47.790;7.322;2023-05-23T11:13:18;99008.06;;;29.30;40.17
13241;BME280;6687;47.790;7.322;2023-05-23T11:15:46;99007.28;;;28.93;39.90
13241;BME280;6687;47.790;7.322;2023-05-23T11:18:20;99006.72;;;30.18;41.31
13241;BME280;6687;47.790;7.322;2023-05-23T11:20:49;98998.94;;;28.98;39.04
13241;BME280;6687;47.790;7.322;2023-05-23T11:23:17;98999.97;;;30.59;39.69
13241;BME280;6687;47.790;7.322;2023-05-23T11:25:48;99000.69;;;30.50;38.90
13241;BME280;6687;47.790;7.322;2023-05-23T11:28:15;98999.72;;;30.40;37.46
13241;BME280;6687;47.790;7.322;2023-05-23T11:30:43;99005.75;;;29.02;39.60
13241;BME280;6687;47.790;7.322;2023-05-23T11:33:13;98992.78;;;29.32;39.28
13241;BME280;6687;47.790;7.322;2023-05-23T11:35:41;98999.84;;;29.33;40.17
13241;BME280;6687;47.790;7.322;2023-05-23T11:38:08;98999.56;;;29.01;39.53
13241;BME280;6687;47.790;7.322;2023-05-23T11:40:36;99004.81;;;29.27;38.98
13241;BME280;6687;47.790;7.322;2023-05-23T11:43:06;99002.28;;;28.26;40.02
13241;BME280;6687;47.790;7.322;2023-05-23T11:45:34;99000.69;;;28.23;41.94
13241;BME280;6687;47.790;7.322;2023-05-23T11:48:05;98998.41;;;28.43;40.74
13241;BME280;6687;47.790;7.322;2023-05-23T11:50:32;98997.69;;;28.15;39.82
13241;BME280;6687;47.790;7.322;2023-05-23T11:52:59;98995.16;;;28.76;42.28
13241;BME280;6687;47.790;7.322;2023-05-23T11:55:26;98998.00;;;28.86;41.41
13241;BME280;6687;47.790;7.322;2023-05-23T11:57:55;98995.97;;;28.89;39.92
13241;BME280;6687;47.790;7.322;2023-05-23T12:00:23;99000.09;;;28.69;40.94
13241;BME280;6687;47.790;7.322;2023-05-23T12:02:50;99002.66;;;27.81;40.49
13241;BME280;6687;47.790;7.322;2023-05-23T12:05:16;98998.31;;;27.27;40.81
13241;BME280;6687;47.790;7.322;2023-05-23T12:07:44;98995.88;;;28.54;41.17
13241;BME280;6687;47.790;7.322;2023-05-23T12:10:11;98987.91;;;27.10;41.46
13241;BME280;6687;47.790;7.322;2023-05-23T12:12:40;98986.75;;;27.94;41.06
13241;BME280;6687;47.790;7.322;2023-05-23T12:15:07;98990.09;;;28.34;40.94
13241;BME280;6687;47.790;7.322;2023-05-23T12:17:36;98991.03;;;27.56;41.59
13241;BME280;6687;47.790;7.322;2023-05-23T12:20:05;98987.78;;;28.30;43.66
13241;BME280;6687;47.790;7.322;2023-05-23T12:22:32;98988.59;;;27.79;41.24
13241;BME280;6687;47.790;7.322;2023-05-23T12:24:58;98991.22;;;25.86;43.08
13241;BME280;6687;47.790;7.322;2023-05-23T12:27:26;98994.78;;;27.67;43.71
13241;BME280;6687;47.790;7.322;2023-05-23T12:30:04;98997.53;;;26.56;42.45
13241;BME280;6687;47.790;7.322;2023-05-23T12:32:31;98988.22;;;26.78;41.55
13241;BME280;6687;47.790;7.322;2023-05-23T12:34:59;98988.06;;;26.94;42.34
13241;BME280;6687;47.790;7.322;2023-05-23T12:37:26;98999.31;;;26.56;42.72
13241;BME280;6687;47.790;7.322;2023-05-23T12:39:54;99000.88;;;25.72;43.86
13241;BME280;6687;47.790;7.322;2023-05-23T12:42:20;98986.69;;;27.01;42.10
13241;BME280;6687;47.790;7.322;2023-05-23T12:44:50;98987.19;;;27.21;44.83
13241;BME280;6687;47.790;7.322;2023-05-23T12:47:17;98988.22;;;28.11;42.26
13241;BME280;6687;47.790;7.322;2023-05-23T12:49:43;98979.97;;;28.40;43.35
13241;BME280;6687;47.790;7.322;2023-05-23T12:52:12;98976.88;;;28.46;42.30
13241;BME280;6687;47.790;7.322;2023-05-23T12:54:39;98979.69;;;28.31;40.50
13241;BME280;6687;47.790;7.322;2023-05-23T12:57:06;98987.47;;;28.09;40.83
13241;BME280;6687;47.790;7.322;2023-05-23T12:59:32;98974.59;;;27.37;40.41
13241;BME280;6687;47.790;7.322;2023-05-23T13:01:59;98973.91;;;28.25;39.94
13241;BME280;6687;47.790;7.322;2023-05-23T13:04:26;98967.56;;;28.02;39.72
13241;BME280;6687;47.790;7.322;2023-05-23T13:06:53;98962.16;;;28.40;38.68
13241;BME280;6687;47.790;7.322;2023-05-23T13:09:21;98976.00;;;27.30;40.48
13241;BME280;6687;47.790;7.322;2023-05-23T13:11:48;98966.22;;;28.46;38.87
13241;BME280;6687;47.790;7.322;2023-05-23T13:14:14;98958.09;;;29.08;39.59
13241;BME280;6687;47.790;7.322;2023-05-23T13:16:41;98960.50;;;28.26;38.86
13241;BME280;6687;47.790;7.322;2023-05-23T13:19:09;98960.94;;;28.94;38.11
13241;BME280;6687;47.790;7.322;2023-05-23T13:21:35;98966.63;;;29.84;38.44
13241;BME280;6687;47.790;7.322;2023-05-23T13:24:02;98961.31;;;30.07;36.38
13241;BME280;6687;47.790;7.322;2023-05-23T13:26:30;98958.38;;;30.21;39.56
13241;BME280;6687;47.790;7.322;2023-05-23T13:28:57;98963.06;;;28.78;37.03
13241;BME280;6687;47.790;7.322;2023-05-23T13:31:24;98959.84;;;30.03;36.60
13241;BME280;6687;47.790;7.322;2023-05-23T13:33:51;98954.69;;;30.79;38.36
13241;BME280;6687;47.790;7.322;2023-05-23T13:36:18;98959.38;;;30.54;37.63
13241;BME280;6687;47.790;7.322;2023-05-23T13:38:44;98949.16;;;30.25;38.21
13241;BME280;6687;47.790;7.322;2023-05-23T13:41:11;98966.75;;;29.71;36.00
13241;BME280;6687;47.790;7.322;2023-05-23T13:43:39;98959.50;;;30.41;35.74
13241;BME280;6687;47.790;7.322;2023-05-23T13:46:06;98962.53;;;29.21;35.86
13241;BME280;6687;47.790;7.322;2023-05-23T13:48:32;98957.44;;;30.33;35.03
13241;BME280;6687;47.790;7.322;2023-05-23T13:51:00;98963.69;;;29.76;36.31
13241;BME280;6687;47.790;7.322;2023-05-23T13:53:26;98954.88;;;30.09;35.80
13241;BME280;6687;47.790;7.322;2023-05-23T13:55:53;98961.28;;;29.73;35.67
13241;BME280;6687;47.790;7.322;2023-05-23T13:58:20;98953.53;;;30.38;36.38
13241;BME280;6687;47.790;7.322;2023-05-23T14:00:48;98958.66;;;28.40;37.19
13241;BME280;6687;47.790;7.322;2023-05-23T14:03:15;98958.28;;;28.94;37.02
13241;BME280;6687;47.790;7.322;2023-05-23T14:05:43;98948.09;;;29.47;38.33
13241;BME280;6687;47.790;7.322;2023-05-23T14:08:10;98950.25;;;27.69;38.28
13241;BME280;6687;47.790;7.322;2023-05-23T14:10:38;98941.75;;;27.89;39.11
13241;BME280;6687;47.790;7.322;2023-05-23T14:13:05;98939.84;;;28.91;36.77
13241;BME280;6687;47.790;7.322;2023-05-23T14:15:32;98952.31;;;28.04;38.03
13241;BME280;6687;47.790;7.322;2023-05-23T14:18:00;98949.00;;;28.13;38.93
13241;BME280;6687;47.790;7.322;2023-05-23T14:20:27;98956.56;;;28.69;36.82
13241;BME280;6687;47.790;7.322;2023-05-23T14:22:54;98945.78;;;28.33;37.85
13241;BME280;6687;47.790;7.322;2023-05-23T14:25:21;98949.19;;;27.58;40.30
13241;BME280;6687;47.790;7.322;2023-05-23T14:27:47;98956.44;;;27.82;39.86
13241;BME280;6687;47.790;7.322;2023-05-23T14:30:14;98949.97;;;26.66;40.28
13241;BME280;6687;47.790;7.322;2023-05-23T14:32:41;98947.28;;;27.61;39.71
13241;BME280;6687;47.790;7.322;2023-05-23T14:35:10;98949.03;;;26.53;41.39
13241;BME280;6687;47.790;7.322;2023-05-23T14:37:37;98950.69;;;26.83;40.74
13241;BME280;6687;47.790;7.322;2023-05-23T14:40:04;98949.91;;;27.08;42.81
13241;BME280;6687;47.790;7.322;2023-05-23T14:42:31;98958.94;;;26.36;41.03
13241;BME280;6687;47.790;7.322;2023-05-23T14:44:58;98951.88;;;26.64;40.34
13241;BME280;6687;47.790;7.322;2023-05-23T14:47:25;98953.03;;;27.80;41.30
13241;BME280;6687;47.790;7.322;2023-05-23T14:49:51;98964.97;;;28.13;39.35
13241;BME280;6687;47.790;7.322;2023-05-23T14:52:19;98951.50;;;26.70;40.29
13241;BME280;6687;47.790;7.322;2023-05-23T14:54:46;98954.72;;;27.81;39.27
13241;BME280;6687;47.790;7.322;2023-05-23T14:57:13;98948.25;;;28.24;38.48
13241;BME280;6687;47.790;7.322;2023-05-23T14:59:39;98952.38;;;26.84;39.69
13241;BME280;6687;47.790;7.322;2023-05-23T15:02:06;98952.63;;;26.93;39.50
13241;BME280;6687;47.790;7.322;2023-05-23T15:04:34;98949.31;;;27.17;39.87
13241;BME280;6687;47.790;7.322;2023-05-23T15:07:01;98943.97;;;27.04;38.73
13241;BME280;6687;47.790;7.322;2023-05-23T15:09:29;98944.94;;;27.82;37.23
13241;BME280;6687;47.790;7.322;2023-05-23T15:11:56;98947.53;;;27.96;37.26
13241;BME280;6687;47.790;7.322;2023-05-23T15:14:23;98943.16;;;28.45;36.55
13241;BME280;6687;47.790;7.322;2023-05-23T15:16:54;98945.41;;;29.12;37.41
13241;BME280;6687;47.790;7.322;2023-05-23T15:19:21;98951.44;;;29.27;36.89
13241;BME280;6687;47.790;7.322;2023-05-23T15:21:47;98942.75;;;27.35;37.41
13241;BME280;6687;47.790;7.322;2023-05-23T15:24:14;98943.44;;;29.38;37.54
13241;BME280;6687;47.790;7.322;2023-05-23T15:26:42;98941.25;;;28.60;35.87
13241;BME280;6687;47.790;7.322;2023-05-23T15:29:09;98946.41;;;28.98;35.09
13241;BME280;6687;47.790;7.322;2023-05-23T15:31:36;98944.94;;;28.94;37.10
13241;BME280;6687;47.790;7.322;2023-05-23T15:34:03;98946.72;;;29.42;37.25
13241;BME280;6687;47.790;7.322;2023-05-23T15:36:30;98949.38;;;28.32;38.07
13241;BME280;6687;47.790;7.322;2023-05-23T15:38:56;98962.34;;;28.63;35.96
13241;BME280;6687;47.790;7.322;2023-05-23T15:41:23;98956.19;;;27.34;37.44
13241;BME280;6687;47.790;7.322;2023-05-23T15:43:52;98962.94;;;28.79;35.66
13241;BME280;6687;47.790;7.322;2023-05-23T15:46:18;98959.81;;;28.61;34.94
13241;BME280;6687;47.790;7.322;2023-05-23T15:48:45;98956.88;;;28.14;38.31
13241;BME280;6687;47.790;7.322;2023-05-23T15:51:12;98952.88;;;28.83;36.03
13241;BME280;6687;47.790;7.322;2023-05-23T15:53:40;98957.72;;;27.64;37.85
13241;BME280;6687;47.790;7.322;2023-05-23T15:56:06;98960.09;;;28.69;35.05
13241;BME280;6687;47.790;7.322;2023-05-23T15:58:33;98963.31;;;29.69;34.80
13241;BME280;6687;47.790;7.322;2023-05-23T16:01:01;98959.53;;;29.01;35.50
13241;BME280;6687;47.790;7.322;2023-05-23T16:03:28;98959.25;;;27.93;35.31
13241;BME280;6687;47.790;7.322;2023-05-23T16:05:55;98968.81;;;27.70;36.54
13241;BME280;6687;47.790;7.322;2023-05-23T16:08:21;98968.50;;;28.01;34.81
13241;BME280;6687;47.790;7.322;2023-05-23T16:10:48;98956.19;;;28.36;35.09
13241;BME280;6687;47.790;7.322;2023-05-23T16:13:15;98953.84;;;28.58;33.53
13241;BME280;6687;47.790;7.322;2023-05-23T16:15:42;98958.66;;;29.13;35.31
13241;BME280;6687;47.790;7.322;2023-05-23T16:18:10;98958.56;;;27.77;37.14
13241;BME280;6687;47.790;7.322;2023-05-23T16:20:36;98959.63;;;27.74;37.10
13241;BME280;6687;47.790;7.322;2023-05-23T16:23:03;98965.03;;;27.47;34.33
13241;BME280;6687;47.790;7.322;2023-05-23T16:25:30;98963.25;;;28.38;34.60
13241;BME280;6687;47.790;7.322;2023-05-23T16:27:56;98955.19;;;27.22;36.48
13241;BME280;6687;47.790;7.322;2023-05-23T16:30:23;98961.13;;;27.66;36.54
13241;BME280;6687;47.790;7.322;2023-05-23T16:32:52;98956.81;;;27.37;35.23
13241;BME280;6687;47.790;7.322;2023-05-23T16:35:20;98965.63;;;27.78;34.12
13241;BME280;6687;47.790;7.322;2023-05-23T16:37:47;98956.09;;;28.51;34.33
13241;BME280;6687;47.790;7.322;2023-05-23T16:40:13;98950.81;;;27.74;35.37
13241;BME280;6687;47.790;7.322;2023-05-23T16:42:40;98947.84;;;26.71;35.17
13241;BME280;6687;47.790;7.322;2023-05-23T16:45:07;98949.31;;;27.70;34.68
13241;BME280;6687;47.790;7.322;2023-05-23T16:47:34;98950.53;;;26.57;35.54
13241;BME280;6687;47.790;7.322;2023-05-23T16:50:01;98946.22;;;27.10;37.65
13241;BME280;6687;47.790;7.322;2023-05-23T16:52:30;98944.78;;;26.50;35.52
13241;BME280;6687;47.790;7.322;2023-05-23T16:54:57;98948.56;;;27.68;36.03
13241;BME280;6687;47.790;7.322;2023-05-23T16:57:24;98948.22;;;27.34;35.74
13241;BME280;6687;47.790;7.322;2023-05-23T16:59:50;98955.41;;;26.36;36.91
13241;BME280;6687;47.790;7.322;2023-05-23T17:02:17;98953.44;;;26.11;36.03
13241;BME280;6687;47.790;7.322;2023-05-23T17:04:44;98948.81;;;26.56;36.76
13241;BME280;6687;47.790;7.322;2023-05-23T17:07:11;98955.88;;;27.26;35.77
13241;BME280;6687;47.790;7.322;2023-05-23T17:09:39;98958.59;;;26.70;35.19
13241;BME280;6687;47.790;7.322;2023-05-23T17:12:06;98968.53;;;26.81;35.18
13241;BME280;6687;47.790;7.322;2023-05-23T17:14:33;98947.69;;;25.88;36.07
13241;BME280;6687;47.790;7.322;2023-05-23T17:17:00;98969.94;;;26.30;35.68
13241;BME280;6687;47.790;7.322;2023-05-23T17:19:27;98955.31;;;26.37;36.35
13241;BME280;6687;47.790;7.322;2023-05-23T17:21:54;98958.81;;;26.94;34.56
13241;BME280;6687;47.790;7.322;2023-05-23T17:24:23;98953.53;;;26.09;37.76
13241;BME280;6687;47.790;7.322;2023-05-23T17:26:51;98960.22;;;25.86;36.63
13241;BME280;6687;47.790;7.322;2023-05-23T17:29:18;98965.59;;;26.15;37.22
13241;BME280;6687;47.790;7.322;2023-05-23T17:31:44;98968.25;;;26.01;36.30
13241;BME280;6687;47.790;7.322;2023-05-23T17:34:11;98975.69;;;25.35;36.95
13241;BME280;6687;47.790;7.322;2023-05-23T17:36:38;98965.28;;;26.63;36.56
13241;BME280;6687;47.790;7.322;2023-05-23T17:39:04;98974.19;;;25.45;37.27
13241;BME280;6687;47.790;7.322;2023-05-23T17:41:31;98972.94;;;25.20;39.19
13241;BME280;6687;47.790;7.322;2023-05-23T17:44:00;98978.19;;;25.52;36.75
13241;BME280;6687;47.790;7.322;2023-05-23T17:46:28;98983.41;;;25.68;38.23
13241;BME280;6687;47.790;7.322;2023-05-23T17:48:54;98981.97;;;24.70;37.27
13241;BME280;6687;47.790;7.322;2023-05-23T17:51:21;98984.44;;;25.05;38.24
13241;BME280;6687;47.790;7.322;2023-05-23T17:53:48;98988.25;;;24.85;38.56
13241;BME280;6687;47.790;7.322;2023-05-23T17:56:18;98984.13;;;24.79;38.65
13241;BME280;6687;47.790;7.322;2023-05-23T17:58:44;98981.66;;;24.43;38.53
13241;BME280;6687;47.790;7.322;2023-05-23T18:01:12;98984.91;;;24.66;38.01
13241;BME280;6687;47.790;7.322;2023-05-23T18:03:39;98975.56;;;25.67;37.29
13241;BME280;6687;47.790;7.322;2023-05-23T18:06:06;98983.47;;;24.42;38.04
13241;BME280;6687;47.790;7.322;2023-05-23T18:08:33;98990.41;;;24.29;38.05
13241;BME280;6687;47.790;7.322;2023-05-23T18:10:59;98990.00;;;24.85;38.25
13241;BME280;6687;47.790;7.322;2023-05-23T18:13:26;98990.25;;;24.48;38.68